sensor_id;sensor_type;location;lat;lon;timestamp;pressure;altitude;pressure_sealevel;temperature;humidity
32456;BME280;18912;43.270;27.942;2023-04-25T00:00:46;97550.19;;;14.55;84.22
32456;BME280;18912;43.270;27.942;2023-04-25T00:03:11;97535.44;;;15.18;81.82
32456;BME280;18912;43.270;27.942;2023-04-25T00:05:37;97542.06;;;14.72;83.73
32456;BME280;18912;43.270;27.942;2023-04-25T00:08:03;97530.63;;;15.25;80.89
32456;BME280;18912;43.270;27.942;2023-04-25T00:10:28;97534.22;;;15.47;79.78
32456;BME280;18912;43.270;27.942;2023-04-25T00:12:54;97523.13;;;15.15;81.91
32456;BME280;18912;43.270;27.942;2023-04-25T00:15:19;97526.19;;;15.19;81.98
32456;BME280;18912;43.270;27.942;2023-04-25T00:17:44;97521.19;;;15.32;81.43
32456;BME280;18912;43.270;27.942;2023-04-25T00:20:10;97521.88;;;15.23;82.26
32456;BME280;18912;43.270;27.942;2023-04-25T00:22:36;97518.00;;;15.19;81.47
32456;BME280;18912;43.270;27.942;2023-04-25T00:25:05;97508.84;;;15.25;80.87
32456;BME280;18912;43.270;27.942;2023-04-25T00:27:31;97509.94;;;15.07;81.48
32456;BME280;18912;43.270;27.942;2023-04-25T00:29:56;97515.19;;;14.75;82.90
32456;BME280;18912;43.270;27.942;2023-04-25T00:32:21;97515.19;;;14.75;84.04
32456;BME280;18912;43.270;27.942;2023-04-25T00:34:47;97509.88;;;15.40;81.60
32456;BME280;18912;43.270;27.942;2023-04-25T00:37:12;97510.09;;;15.17;81.41
32456;BME280;18912;43.270;27.942;2023-04-25T00:39:37;97502.38;;;15.47;80.71
32456;BME280;18912;43.270;27.942;2023-04-25T00:42:03;97491.16;;;15.65;78.79
32456;BME280;18912;43.270;27.942;2023-04-25T00:44:29;97493.56;;;15.62;79.32
32456;BME280;18912;43.270;27.942;2023-04-25T00:46:55;97502.22;;;15.80;78.01
32456;BME280;18912;43.270;27.942;2023-04-25T00:49:20;97491.66;;;15.62;78.21
32456;BME280;18912;43.270;27.942;2023-04-25T00:51:45;97492.41;;;16.01;75.99
32456;BME280;18912;43.270;27.942;2023-04-25T00:54:11;97505.44;;;15.99;76.76
32456;BME280;18912;43.270;27.942;2023-04-25T00:56:37;97495.84;;;15.70;78.77
32456;BME280;18912;43.270;27.942;2023-04-25T00:59:02;97491.69;;;16.11;76.57
32456;BME280;18912;43.270;27.942;2023-04-25T01:01:28;97481.69;;;15.95;77.52
32456;BME280;18912;43.270;27.942;2023-04-25T01:03:53;97483.56;;;15.94;77.96
32456;BME280;18912;43.270;27.942;2023-04-25T01:06:19;97483.56;;;16.21;76.52
32456;BME280;18912;43.270;27.942;2023-04-25T01:08:44;97486.94;;;16.01;77.28
32456;BME280;18912;43.270;27.942;2023-04-25T01:11:09;97488.78;;;15.96;77.64
32456;BME280;18912;43.270;27.942;2023-04-25T01:13:35;97481.34;;;16.13;77.52
32456;BME280;18912;43.270;27.942;2023-04-25T01:16:01;97477.38;;;15.99;76.91
32456;BME280;18912;43.270;27.942;2023-04-25T01:18:27;97475.69;;;16.24;76.70
32456;BME280;18912;43.270;27.942;2023-04-25T01:20:52;97472.16;;;16.24;76.11
32456;BME280;18912;43.270;27.942;2023-04-25T01:23:18;97476.38;;;15.83;77.41
32456;BME280;18912;43.270;27.942;2023-04-25T01:25:44;97478.06;;;15.89;76.62
32456;BME280;18912;43.270;27.942;2023-04-25T01:28:10;97468.47;;;15.60;77.35
32456;BME280;18912;43.270;27.942;2023-04-25T01:30:35;97455.81;;;15.49;78.29
32456;BME280;18912;43.270;27.942;2023-04-25T01:33:01;97460.63;;;15.42;79.62
32456;BME280;18912;43.270;27.942;2023-04-25T01:35:29;97460.03;;;15.40;78.67
32456;BME280;18912;43.270;27.942;2023-04-25T01:37:54;97455.34;;;15.35;79.65
32456;BME280;18912;43.270;27.942;2023-04-25T01:40:20;97449.97;;;15.62;78.77
32456;BME280;18912;43.270;27.942;2023-04-25T01:42:46;97447.63;;;15.49;79.55
32456;BME280;18912;43.270;27.942;2023-04-25T01:45:11;97445.31;;;15.41;79.44
32456;BME280;18912;43.270;27.942;2023-04-25T01:47:37;97450.78;;;15.19;80.54
32456;BME280;18912;43.270;27.942;2023-04-25T01:50:03;97453.81;;;15.23;80.81
32456;BME280;18912;43.270;27.942;2023-04-25T01:52:28;97435.75;;;15.17;81.79
32456;BME280;18912;43.270;27.942;2023-04-25T01:54:54;97433.75;;;15.29;80.64
32456;BME280;18912;43.270;27.942;2023-04-25T01:57:19;97423.97;;;14.89;82.97
32456;BME280;18912;43.270;27.942;2023-04-25T01:59:45;97417.50;;;14.95;83.58
32456;BME280;18912;43.270;27.942;2023-04-25T02:02:10;97420.97;;;14.69;84.21
32456;BME280;18912;43.270;27.942;2023-04-25T02:04:36;97427.78;;;15.32;82.13
32456;BME280;18912;43.270;27.942;2023-04-25T02:07:01;97424.00;;;15.33;80.79
32456;BME280;18912;43.270;27.942;2023-04-25T02:09:26;97410.59;;;15.48;80.69
32456;BME280;18912;43.270;27.942;2023-04-25T02:11:52;97409.34;;;15.82;78.19
32456;BME280;18912;43.270;27.942;2023-04-25T02:14:18;97412.47;;;15.69;79.38
32456;BME280;18912;43.270;27.942;2023-04-25T02:16:43;97407.84;;;15.26;81.43
32456;BME280;18912;43.270;27.942;2023-04-25T02:19:11;97406.53;;;15.29;81.49
32456;BME280;18912;43.270;27.942;2023-04-25T02:21:37;97401.84;;;15.46;81.05
32456;BME280;18912;43.270;27.942;2023-04-25T02:24:02;97408.75;;;15.53;81.23
32456;BME280;18912;43.270;27.942;2023-04-25T02:26:28;97418.25;;;15.51;81.18
32456;BME280;18912;43.270;27.942;2023-04-25T02:28:53;97401.19;;;15.60;80.76
32456;BME280;18912;43.270;27.942;2023-04-25T02:31:19;97401.94;;;15.56;80.25
32456;BME280;18912;43.270;27.942;2023-04-25T02:33:44;97397.41;;;16.20;77.64
32456;BME280;18912;43.270;27.942;2023-04-25T02:36:10;97403.94;;;15.87;78.40
32456;BME280;18912;43.270;27.942;2023-04-25T02:38:35;97402.78;;;16.10;78.36
32456;BME280;18912;43.270;27.942;2023-04-25T02:41:00;97395.78;;;15.92;78.23
32456;BME280;18912;43.270;27.942;2023-04-25T02:43:26;97384.19;;;16.38;77.07
32456;BME280;18912;43.270;27.942;2023-04-25T02:45:51;97385.72;;;16.24;77.25
32456;BME280;18912;43.270;27.942;2023-04-25T02:48:16;97381.09;;;15.93;78.30
32456;BME280;18912;43.270;27.942;2023-04-25T02:50:42;97380.19;;;16.14;77.56
32456;BME280;18912;43.270;27.942;2023-04-25T02:53:07;97371.84;;;16.62;75.57
32456;BME280;18912;43.270;27.942;2023-04-25T02:55:33;97375.75;;;16.40;75.75
32456;BME280;18912;43.270;27.942;2023-04-25T02:57:58;97376.22;;;16.32;75.95
32456;BME280;18912;43.270;27.942;2023-04-25T03:00:23;97383.84;;;15.98;77.16
32456;BME280;18912;43.270;27.942;2023-04-25T03:02:49;97378.41;;;15.98;77.03
32456;BME280;18912;43.270;27.942;2023-04-25T03:05:14;97374.78;;;15.61;79.01
32456;BME280;18912;43.270;27.942;2023-04-25T03:07:39;97381.78;;;16.10;77.52
32456;BME280;18912;43.270;27.942;2023-04-25T03:10:06;97384.47;;;16.05;77.38
32456;BME280;18912;43.270;27.942;2023-04-25T03:12:31;97377.03;;;15.96;77.41
32456;BME280;18912;43.270;27.942;2023-04-25T03:14:56;97384.41;;;16.63;74.89
32456;BME280;18912;43.270;27.942;2023-04-25T03:17:22;97379.00;;;16.05;75.66
32456;BME280;18912;43.270;27.942;2023-04-25T03:19:47;97369.66;;;16.59;74.06
32456;BME280;18912;43.270;27.942;2023-04-25T03:22:13;97371.22;;;16.19;74.88
32456;BME280;18912;43.270;27.942;2023-04-25T03:24:38;97367.50;;;16.30;74.11
32456;BME280;18912;43.270;27.942;2023-04-25T03:27:03;97361.44;;;16.23;74.66
32456;BME280;18912;43.270;27.942;2023-04-25T03:29:29;97371.47;;;16.17;75.34
32456;BME280;18912;43.270;27.942;2023-04-25T03:31:54;97372.75;;;16.41;74.40
32456;BME280;18912;43.270;27.942;2023-04-25T03:34:19;97372.88;;;16.51;74.70
32456;BME280;18912;43.270;27.942;2023-04-25T03:36:46;97370.44;;;16.23;75.04
32456;BME280;18912;43.270;27.942;2023-04-25T03:39:12;97366.78;;;16.08;75.66
32456;BME280;18912;43.270;27.942;2023-04-25T03:41:37;97364.19;;;15.91;77.63
32456;BME280;18912;43.270;27.942;2023-04-25T03:44:02;97365.91;;;16.02;77.34
32456;BME280;18912;43.270;27.942;2023-04-25T03:46:28;97365.94;;;16.07;75.63
32456;BME280;18912;43.270;27.942;2023-04-25T03:48:53;97359.06;;;16.00;76.63
32456;BME280;18912;43.270;27.942;2023-04-25T03:51:18;97355.13;;;16.17;76.12
32456;BME280;18912;43.270;27.942;2023-04-25T03:53:44;97355.22;;;16.27;75.08
32456;BME280;18912;43.270;27.942;2023-04-25T03:56:09;97363.25;;;15.80;76.99
32456;BME280;18912;43.270;27.942;2023-04-25T03:58:34;97363.53;;;16.11;75.41
32456;BME280;18912;43.270;27.942;2023-04-25T04:01:00;97363.84;;;16.14;75.66
32456;BME280;18912;43.270;27.942;2023-04-25T04:03:27;97365.59;;;16.67;72.55
32456;BME280;18912;43.270;27.942;2023-04-25T04:05:53;97362.53;;;16.22;73.34
32456;BME280;18912;43.270;27.942;2023-04-25T04:08:18;97366.56;;;16.14;74.39
32456;BME280;18912;43.270;27.942;2023-04-25T04:10:43;97360.38;;;16.60;71.66
32456;BME280;18912;43.270;27.942;2023-04-25T04:13:09;97353.84;;;16.61;71.51
32456;BME280;18912;43.270;27.942;2023-04-25T04:15:34;97358.81;;;16.74;71.40
32456;BME280;18912;43.270;27.942;2023-04-25T04:17:59;97358.03;;;16.79;71.33
32456;BME280;18912;43.270;27.942;2023-04-25T04:20:28;97345.66;;;17.18;70.28
32456;BME280;18912;43.270;27.942;2023-04-25T04:22:53;97349.28;;;17.39;69.88
32456;BME280;18912;43.270;27.942;2023-04-25T04:25:18;97351.66;;;17.15;70.12
32456;BME280;18912;43.270;27.942;2023-04-25T04:27:44;97350.78;;;17.05;70.85
32456;BME280;18912;43.270;27.942;2023-04-25T04:30:09;97347.28;;;17.19;70.79
32456;BME280;18912;43.270;27.942;2023-04-25T04:32:35;97348.47;;;17.43;69.84
32456;BME280;18912;43.270;27.942;2023-04-25T04:35:02;97344.31;;;17.21;70.60
32456;BME280;18912;43.270;27.942;2023-04-25T04:37:29;97349.28;;;17.39;69.52
32456;BME280;18912;43.270;27.942;2023-04-25T04:39:55;97341.03;;;17.29;70.21
32456;BME280;18912;43.270;27.942;2023-04-25T04:42:20;97339.00;;;17.66;68.25
32456;BME280;18912;43.270;27.942;2023-04-25T04:44:46;97348.03;;;17.66;68.44
32456;BME280;18912;43.270;27.942;2023-04-25T04:47:11;97343.97;;;18.04;67.07
32456;BME280;18912;43.270;27.942;2023-04-25T04:49:39;97355.16;;;17.93;66.87
32456;BME280;18912;43.270;27.942;2023-04-25T04:52:04;97345.88;;;18.19;66.12
32456;BME280;18912;43.270;27.942;2023-04-25T04:54:30;97347.19;;;17.76;68.01
32456;BME280;18912;43.270;27.942;2023-04-25T04:56:55;97350.78;;;18.12;67.54
32456;BME280;18912;43.270;27.942;2023-04-25T04:59:21;97340.63;;;17.82;67.77
32456;BME280;18912;43.270;27.942;2023-04-25T05:01:46;97333.81;;;18.20;66.65
32456;BME280;18912;43.270;27.942;2023-04-25T05:04:11;97332.19;;;18.34;65.80
32456;BME280;18912;43.270;27.942;2023-04-25T05:06:37;97328.91;;;18.17;66.65
32456;BME280;18912;43.270;27.942;2023-04-25T05:09:02;97329.19;;;18.25;64.66
32456;BME280;18912;43.270;27.942;2023-04-25T05:11:28;97338.72;;;18.68;62.92
32456;BME280;18912;43.270;27.942;2023-04-25T05:13:54;97334.34;;;18.62;63.16
32456;BME280;18912;43.270;27.942;2023-04-25T05:16:19;97328.91;;;18.12;63.44
32456;BME280;18912;43.270;27.942;2023-04-25T05:18:45;97327.53;;;18.24;63.23
32456;BME280;18912;43.270;27.942;2023-04-25T05:21:11;97335.41;;;18.81;61.20
32456;BME280;18912;43.270;27.942;2023-04-25T05:23:36;97332.97;;;18.70;59.91
32456;BME280;18912;43.270;27.942;2023-04-25T05:26:01;97334.09;;;18.58;60.16
32456;BME280;18912;43.270;27.942;2023-04-25T05:28:26;97324.53;;;19.35;58.63
32456;BME280;18912;43.270;27.942;2023-04-25T05:30:52;97331.19;;;19.14;57.92
32456;BME280;18912;43.270;27.942;2023-04-25T05:33:17;97328.66;;;19.76;55.12
32456;BME280;18912;43.270;27.942;2023-04-25T05:35:43;97330.81;;;19.30;51.98
32456;BME280;18912;43.270;27.942;2023-04-25T05:38:08;97330.63;;;19.12;51.67
32456;BME280;18912;43.270;27.942;2023-04-25T05:40:33;97328.44;;;20.11;50.72
32456;BME280;18912;43.270;27.942;2023-04-25T05:42:59;97329.75;;;19.80;50.89
32456;BME280;18912;43.270;27.942;2023-04-25T05:45:24;97324.53;;;20.51;50.41
32456;BME280;18912;43.270;27.942;2023-04-25T05:47:49;97321.94;;;19.97;50.18
32456;BME280;18912;43.270;27.942;2023-04-25T05:50:15;97316.16;;;19.99;49.60
32456;BME280;18912;43.270;27.942;2023-04-25T05:52:40;97315.91;;;20.34;48.43
32456;BME280;18912;43.270;27.942;2023-04-25T05:55:05;97313.34;;;20.95;47.07
32456;BME280;18912;43.270;27.942;2023-04-25T05:57:31;97311.09;;;20.73;46.55
32456;BME280;18912;43.270;27.942;2023-04-25T05:59:56;97313.53;;;20.80;46.82
32456;BME280;18912;43.270;27.942;2023-04-25T06:02:21;97306.91;;;20.81;46.14
32456;BME280;18912;43.270;27.942;2023-04-25T06:04:50;97302.84;;;21.25;46.34
32456;BME280;18912;43.270;27.942;2023-04-25T06:07:16;97307.75;;;20.53;47.03
32456;BME280;18912;43.270;27.942;2023-04-25T06:09:41;97303.72;;;20.45;47.42
32456;BME280;18912;43.270;27.942;2023-04-25T06:12:06;97310.25;;;21.01;46.39
32456;BME280;18912;43.270;27.942;2023-04-25T06:14:32;97303.06;;;19.91;48.48
32456;BME280;18912;43.270;27.942;2023-04-25T06:16:58;97304.59;;;20.07;49.59
32456;BME280;18912;43.270;27.942;2023-04-25T06:19:23;97295.81;;;20.38;47.76
32456;BME280;18912;43.270;27.942;2023-04-25T06:21:48;97301.91;;;20.02;48.27
32456;BME280;18912;43.270;27.942;2023-04-25T06:24:14;97296.53;;;19.87;49.52
32456;BME280;18912;43.270;27.942;2023-04-25T06:26:39;97296.94;;;20.04;49.18
32456;BME280;18912;43.270;27.942;2023-04-25T06:29:04;97290.50;;;19.85;48.12
32456;BME280;18912;43.270;27.942;2023-04-25T06:31:30;97292.44;;;19.84;48.95
32456;BME280;18912;43.270;27.942;2023-04-25T06:33:57;97288.47;;;20.34;48.00
32456;BME280;18912;43.270;27.942;2023-04-25T06:36:22;97285.50;;;19.58;48.15
32456;BME280;18912;43.270;27.942;2023-04-25T06:38:53;97285.63;;;19.77;47.18
32456;BME280;18912;43.270;27.942;2023-04-25T06:41:19;97282.59;;;19.78;47.71
32456;BME280;18912;43.270;27.942;2023-04-25T06:43:45;97304.03;;;20.05;47.76
32456;BME280;18912;43.270;27.942;2023-04-25T06:46:10;97279.09;;;19.19;48.19
32456;BME280;18912;43.270;27.942;2023-04-25T06:48:36;97278.50;;;19.27;48.27
32456;BME280;18912;43.270;27.942;2023-04-25T06:51:01;97287.53;;;19.81;45.93
32456;BME280;18912;43.270;27.942;2023-04-25T06:53:27;97285.97;;;20.04;46.20
32456;BME280;18912;43.270;27.942;2023-04-25T06:55:52;97284.66;;;19.96;46.82
32456;BME280;18912;43.270;27.942;2023-04-25T06:58:17;97279.56;;;21.18;44.85
32456;BME280;18912;43.270;27.942;2023-04-25T07:00:43;97287.84;;;20.66;44.77
32456;BME280;18912;43.270;27.942;2023-04-25T07:03:08;97280.00;;;20.30;45.08
32456;BME280;18912;43.270;27.942;2023-04-25T07:05:35;97287.56;;;20.91;44.42
32456;BME280;18912;43.270;27.942;2023-04-25T07:08:01;97281.72;;;21.21;44.19
32456;BME280;18912;43.270;27.942;2023-04-25T07:10:26;97287.41;;;21.85;42.38
32456;BME280;18912;43.270;27.942;2023-04-25T07:12:52;97289.56;;;21.51;41.99
32456;BME280;18912;43.270;27.942;2023-04-25T07:15:17;97275.19;;;22.10;42.64
32456;BME280;18912;43.270;27.942;2023-04-25T07:17:42;97270.53;;;22.24;42.31
32456;BME280;18912;43.270;27.942;2023-04-25T07:20:08;97273.72;;;23.04;40.35
32456;BME280;18912;43.270;27.942;2023-04-25T07:22:34;97268.94;;;23.09;40.42
32456;BME280;18912;43.270;27.942;2023-04-25T07:24:59;97272.50;;;22.69;41.01
32456;BME280;18912;43.270;27.942;2023-04-25T07:27:25;97273.22;;;23.02;40.68
32456;BME280;18912;43.270;27.942;2023-04-25T07:29:50;97280.94;;;23.41;40.95
32456;BME280;18912;43.270;27.942;2023-04-25T07:32:15;97272.78;;;23.22;39.72
32456;BME280;18912;43.270;27.942;2023-04-25T07:34:41;97268.38;;;24.28;38.89
32456;BME280;18912;43.270;27.942;2023-04-25T07:37:06;97276.56;;;23.75;39.61
32456;BME280;18912;43.270;27.942;2023-04-25T07:39:32;97274.63;;;23.76;39.23
32456;BME280;18912;43.270;27.942;2023-04-25T07:41:57;97261.75;;;23.71;39.20
32456;BME280;18912;43.270;27.942;2023-04-25T07:44:23;97264.59;;;24.16;38.62
32456;BME280;18912;43.270;27.942;2023-04-25T07:46:49;97265.41;;;23.80;39.31
32456;BME280;18912;43.270;27.942;2023-04-25T07:49:14;97257.41;;;24.37;39.77
32456;BME280;18912;43.270;27.942;2023-04-25T07:51:40;97266.59;;;24.85;37.96
32456;BME280;18912;43.270;27.942;2023-04-25T07:54:06;97262.22;;;24.84;38.22
32456;BME280;18912;43.270;27.942;2023-04-25T07:56:31;97261.84;;;24.46;38.93
32456;BME280;18912;43.270;27.942;2023-04-25T07:58:56;97260.28;;;24.32;38.98
32456;BME280;18912;43.270;27.942;2023-04-25T08:01:22;97254.16;;;24.35;39.36
32456;BME280;18912;43.270;27.942;2023-04-25T08:03:47;97252.25;;;24.44;38.94
32456;BME280;18912;43.270;27.942;2023-04-25T08:06:13;97253.94;;;24.84;38.50
32456;BME280;18912;43.270;27.942;2023-04-25T08:08:38;97255.28;;;24.95;38.42
32456;BME280;18912;43.270;27.942;2023-04-25T08:11:03;97257.22;;;25.42;38.04
32456;BME280;18912;43.270;27.942;2023-04-25T08:13:29;97263.44;;;24.69;38.97
32456;BME280;18912;43.270;27.942;2023-04-25T08:15:54;97265.44;;;23.31;41.04
32456;BME280;18912;43.270;27.942;2023-04-25T08:18:19;97270.69;;;23.90;41.33
32456;BME280;18912;43.270;27.942;2023-04-25T08:20:45;97263.28;;;22.87;41.74
32456;BME280;18912;43.270;27.942;2023-04-25T08:23:10;97271.81;;;22.45;41.76
32456;BME280;18912;43.270;27.942;2023-04-25T08:25:35;97284.16;;;22.15;41.49
32456;BME280;18912;43.270;27.942;2023-04-25T08:28:01;97294.59;;;22.00;41.91
32456;BME280;18912;43.270;27.942;2023-04-25T08:30:28;97279.38;;;21.89;41.61
32456;BME280;18912;43.270;27.942;2023-04-25T08:32:53;97274.31;;;21.40;41.37
32456;BME280;18912;43.270;27.942;2023-04-25T08:35:19;97290.38;;;21.09;42.72
32456;BME280;18912;43.270;27.942;2023-04-25T08:37:45;97283.16;;;21.74;43.18
32456;BME280;18912;43.270;27.942;2023-04-25T08:40:14;97282.03;;;21.19;44.78
32456;BME280;18912;43.270;27.942;2023-04-25T08:42:40;97274.00;;;20.76;45.44
32456;BME280;18912;43.270;27.942;2023-04-25T08:45:08;97271.41;;;20.37;46.00
32456;BME280;18912;43.270;27.942;2023-04-25T08:47:33;97280.78;;;19.97;45.24
32456;BME280;18912;43.270;27.942;2023-04-25T08:49:59;97267.66;;;20.28;45.98
32456;BME280;18912;43.270;27.942;2023-04-25T08:52:27;97266.41;;;20.68;44.46
32456;BME280;18912;43.270;27.942;2023-04-25T08:54:53;97274.41;;;20.07;44.54
32456;BME280;18912;43.270;27.942;2023-04-25T08:57:19;97275.59;;;20.29;43.91
32456;BME280;18912;43.270;27.942;2023-04-25T08:59:45;97283.38;;;19.84;43.75
32456;BME280;18912;43.270;27.942;2023-04-25T09:02:11;97286.66;;;20.48;43.55
32456;BME280;18912;43.270;27.942;2023-04-25T09:04:44;97285.47;;;19.97;43.28
32456;BME280;18912;43.270;27.942;2023-04-25T09:07:09;97277.63;;;20.14;44.09
32456;BME280;18912;43.270;27.942;2023-04-25T09:09:35;97281.38;;;19.94;44.31
32456;BME280;18912;43.270;27.942;2023-04-25T09:12:01;97290.88;;;20.88;43.90
32456;BME280;18912;43.270;27.942;2023-04-25T09:14:26;97288.03;;;20.98;44.21
32456;BME280;18912;43.270;27.942;2023-04-25T09:19:31;97279.06;;;20.06;44.07
32456;BME280;18912;43.270;27.942;2023-04-25T09:21:57;97277.06;;;20.74;43.78
32456;BME280;18912;43.270;27.942;2023-04-25T09:26:57;97256.06;;;20.60;44.75
32456;BME280;18912;43.270;27.942;2023-04-25T09:29:29;97271.63;;;20.40;44.75
32456;BME280;18912;43.270;27.942;2023-04-25T09:34:42;97279.66;;;20.03;46.04
32456;BME280;18912;43.270;27.942;2023-04-25T09:37:11;97271.59;;;20.12;46.90
32456;BME280;18912;43.270;27.942;2023-04-25T09:39:37;97266.22;;;20.83;46.19
32456;BME280;18912;43.270;27.942;2023-04-25T09:42:03;97258.88;;;20.78;46.54
32456;BME280;18912;43.270;27.942;2023-04-25T09:44:28;97261.75;;;21.34;45.88
32456;BME280;18912;43.270;27.942;2023-04-25T09:46:54;97261.16;;;21.37;46.03
32456;BME280;18912;43.270;27.942;2023-04-25T09:49:19;97252.19;;;21.50;46.10
32456;BME280;18912;43.270;27.942;2023-04-25T09:51:56;97244.22;;;21.86;45.94
32456;BME280;18912;43.270;27.942;2023-04-25T09:54:22;97248.56;;;22.05;45.60
32456;BME280;18912;43.270;27.942;2023-04-25T09:56:48;97243.09;;;22.19;45.30
32456;BME280;18912;43.270;27.942;2023-04-25T09:59:13;97248.09;;;22.30;45.93
32456;BME280;18912;43.270;27.942;2023-04-25T10:01:40;97236.78;;;22.18;46.16
32456;BME280;18912;43.270;27.942;2023-04-25T10:04:06;97240.00;;;22.53;45.83
32456;BME280;18912;43.270;27.942;2023-04-25T10:06:35;97241.88;;;22.71;45.65
32456;BME280;18912;43.270;27.942;2023-04-25T10:09:02;97232.06;;;22.92;45.00
32456;BME280;18912;43.270;27.942;2023-04-25T10:11:28;97228.28;;;23.15;44.62
32456;BME280;18912;43.270;27.942;2023-04-25T10:13:55;97237.38;;;23.15;44.58
32456;BME280;18912;43.270;27.942;2023-04-25T10:16:21;97218.69;;;22.99;44.97
32456;BME280;18912;43.270;27.942;2023-04-25T10:18:47;97226.19;;;23.48;44.05
32456;BME280;18912;43.270;27.942;2023-04-25T10:21:12;97231.03;;;23.86;43.15
32456;BME280;18912;43.270;27.942;2023-04-25T10:23:38;97227.03;;;24.15;43.04
32456;BME280;18912;43.270;27.942;2023-04-25T10:26:03;97215.84;;;23.97;42.26
32456;BME280;18912;43.270;27.942;2023-04-25T10:28:29;97213.38;;;24.71;41.90
32456;BME280;18912;43.270;27.942;2023-04-25T10:30:58;97215.09;;;24.89;41.59
32456;BME280;18912;43.270;27.942;2023-04-25T10:33:33;97215.34;;;25.18;41.35
32456;BME280;18912;43.270;27.942;2023-04-25T10:36:07;97205.63;;;25.63;40.08
32456;BME280;18912;43.270;27.942;2023-04-25T10:38:33;97202.16;;;25.32;39.39
32456;BME280;18912;43.270;27.942;2023-04-25T10:41:05;97198.97;;;26.16;38.74
32456;BME280;18912;43.270;27.942;2023-04-25T10:46:01;97197.47;;;26.18;37.94
32456;BME280;18912;43.270;27.942;2023-04-25T10:48:26;97197.31;;;26.78;37.75
32456;BME280;18912;43.270;27.942;2023-04-25T10:53:36;97202.13;;;26.35;38.05
32456;BME280;18912;43.270;27.942;2023-04-25T10:56:17;97210.69;;;25.70;40.55
32456;BME280;18912;43.270;27.942;2023-04-25T10:58:43;97189.69;;;25.60;40.90
32456;BME280;18912;43.270;27.942;2023-04-25T11:01:09;97197.34;;;25.63;41.86
32456;BME280;18912;43.270;27.942;2023-04-25T11:03:41;97203.69;;;25.64;40.28
32456;BME280;18912;43.270;27.942;2023-04-25T11:06:09;97200.19;;;25.07;41.73
32456;BME280;18912;43.270;27.942;2023-04-25T11:08:43;97208.72;;;25.53;40.88
32456;BME280;18912;43.270;27.942;2023-04-25T11:11:12;97198.53;;;24.97;41.01
32456;BME280;18912;43.270;27.942;2023-04-25T11:13:38;97211.38;;;24.93;41.39
32456;BME280;18912;43.270;27.942;2023-04-25T11:16:03;97205.69;;;24.29;41.04
32456;BME280;18912;43.270;27.942;2023-04-25T11:18:31;97199.59;;;24.40;41.75
32456;BME280;18912;43.270;27.942;2023-04-25T11:20:59;97207.91;;;24.49;41.89
32456;BME280;18912;43.270;27.942;2023-04-25T11:23:24;97208.09;;;23.77;42.92
32456;BME280;18912;43.270;27.942;2023-04-25T11:25:51;97213.16;;;23.62;42.94
32456;BME280;18912;43.270;27.942;2023-04-25T11:28:20;97205.56;;;23.67;43.33
32456;BME280;18912;43.270;27.942;2023-04-25T11:30:49;97204.50;;;23.19;43.21
32456;BME280;18912;43.270;27.942;2023-04-25T11:33:17;97199.53;;;23.43;43.49
32456;BME280;18912;43.270;27.942;2023-04-25T11:35:42;97206.31;;;23.10;44.07
32456;BME280;18912;43.270;27.942;2023-04-25T11:38:08;97210.44;;;22.85;44.20
32456;BME280;18912;43.270;27.942;2023-04-25T11:40:34;97195.41;;;22.23;45.68
32456;BME280;18912;43.270;27.942;2023-04-25T11:43:00;97191.50;;;22.24;45.77
32456;BME280;18912;43.270;27.942;2023-04-25T11:45:26;97195.66;;;22.81;45.18
32456;BME280;18912;43.270;27.942;2023-04-25T11:47:51;97192.41;;;22.06;46.49
32456;BME280;18912;43.270;27.942;2023-04-25T11:50:17;97186.75;;;22.30;46.06
32456;BME280;18912;43.270;27.942;2023-04-25T11:52:43;97184.78;;;22.30;47.08
32456;BME280;18912;43.270;27.942;2023-04-25T11:55:16;97180.66;;;22.74;45.25
32456;BME280;18912;43.270;27.942;2023-04-25T11:57:42;97182.03;;;23.12;45.76
32456;BME280;18912;43.270;27.942;2023-04-25T12:00:08;97175.94;;;22.34;47.97
32456;BME280;18912;43.270;27.942;2023-04-25T12:02:35;97197.09;;;22.92;44.90
32456;BME280;18912;43.270;27.942;2023-04-25T12:05:01;97186.25;;;22.96;44.50
32456;BME280;18912;43.270;27.942;2023-04-25T12:07:29;97176.84;;;22.83;44.46
32456;BME280;18912;43.270;27.942;2023-04-25T12:09:55;97178.69;;;22.88;43.99
32456;BME280;18912;43.270;27.942;2023-04-25T12:12:20;97177.59;;;22.89;43.06
32456;BME280;18912;43.270;27.942;2023-04-25T12:14:46;97153.88;;;22.06;43.25
32456;BME280;18912;43.270;27.942;2023-04-25T12:17:16;97173.59;;;22.41;43.19
32456;BME280;18912;43.270;27.942;2023-04-25T12:19:41;97157.19;;;22.36;43.75
32456;BME280;18912;43.270;27.942;2023-04-25T12:22:22;97151.34;;;22.91;43.78
32456;BME280;18912;43.270;27.942;2023-04-25T12:24:47;97150.44;;;22.55;44.08
32456;BME280;18912;43.270;27.942;2023-04-25T12:27:14;97149.53;;;22.46;44.05
32456;BME280;18912;43.270;27.942;2023-04-25T12:29:54;97147.41;;;22.57;44.13
32456;BME280;18912;43.270;27.942;2023-04-25T12:32:20;97139.09;;;22.02;45.49
32456;BME280;18912;43.270;27.942;2023-04-25T12:34:45;97142.81;;;22.79;44.25
32456;BME280;18912;43.270;27.942;2023-04-25T12:37:11;97147.09;;;22.45;44.91
32456;BME280;18912;43.270;27.942;2023-04-25T12:39:37;97151.69;;;22.36;44.52
32456;BME280;18912;43.270;27.942;2023-04-25T12:42:02;97133.84;;;22.47;44.54
32456;BME280;18912;43.270;27.942;2023-04-25T12:44:28;97137.72;;;22.18;45.03
32456;BME280;18912;43.270;27.942;2023-04-25T12:46:53;97139.41;;;22.55;44.63
32456;BME280;18912;43.270;27.942;2023-04-25T12:49:19;97126.28;;;22.39;44.64
32456;BME280;18912;43.270;27.942;2023-04-25T12:51:45;97124.22;;;22.44;44.78
32456;BME280;18912;43.270;27.942;2023-04-25T12:54:11;97133.28;;;21.72;45.30
32456;BME280;18912;43.270;27.942;2023-04-25T12:56:36;97118.50;;;22.13;45.14